Flight Track Log - Related Links

Times and Time Zones

All times are in EDT time to prevent confusion due to time zone crossing. See the N36CT flight status page for this flight to view local times or setup timezone preferences in your user account.

Time Position Orientation Groundspeed Altitude Reporting Facility
EDT Latitude Longitude Course Direction KTS MPH feet Rate Location/Type
Wed 08:46:32 AM 32.5839 -90.0714 North 194 223 3,200  Level Memphis Center
Wed 08:47:32 AM 32.6319 -90.0614 10° North 199 229 3,800 650 Climbing Memphis Center
Wed 08:48:32 AM 32.6800 -90.0536 North 184 212 4,500 500 Climbing Memphis Center
Wed 08:49:32 AM 32.7319 -90.0511 North 179 206 4,800 150 Climbing Memphis Center
Wed 08:50:00 AM 32.7123 -90.0579 North  Level FlightAware Approximate
Wed 08:50:32 AM 32.7864 -90.0483 North 185 213 4,800  Level Memphis Center
Wed 08:51:00 AM 32.7686 -90.0516 North  Level FlightAware Approximate
Wed 08:51:32 AM 32.8447 -90.0433 North 198 228 4,800  Level Memphis Center
Wed 08:52:32 AM 32.9033 -90.0381 North 198 228 4,800 50 Level Memphis Center
Wed 08:53:32 AM 32.9594 -90.0306 North 198 228 4,900  Climbing Memphis Center
Wed 08:54:32 AM 33.0097 -90.0253 North 198 228 4,800  Descending Memphis Center
Wed 08:55:32 AM 33.0681 -90.0175 North 198 228 4,900 50 Climbing Memphis Center
Wed 08:56:32 AM 33.1264 -90.0125 North 198 228 4,900  Level Memphis Center
Wed 08:57:32 AM 33.1850 -90.0047 North 198 228 4,900  Level Memphis Center
Wed 08:58:32 AM 33.2433 -89.9994 North 198 228 4,900  Level Memphis Center
Wed 08:59:32 AM 33.3017 -89.9919 North 203 234 4,900  Level Memphis Center
Wed 09:00:32 AM 33.3603 -89.9867 North 203 234 4,900  Level Memphis Center
Wed 09:01:32 AM 33.4250 -89.9789 North 210 242 4,900  Level Memphis Center
Wed 09:02:32 AM 33.4833 -89.9711 North 210 242 4,900  Level Memphis Center
Wed 09:03:32 AM 33.5417 -89.9658 North 210 242 4,900  Level Memphis Center
Wed 09:04:32 AM 33.5981 -89.9556 North 210 242 4,900  Level Memphis Center
Wed 09:05:32 AM 33.6586 -89.9528 North 210 242 4,900  Level Memphis Center
Wed 09:06:32 AM 33.7192 -89.9425 North 215 247 4,900  Level Memphis Center
Wed 09:07:32 AM 33.7756 -89.9347 North 215 247 4,900  Level Memphis Center
Wed 09:08:32 AM 33.8358 -89.9294 North 215 247 4,900  Level Memphis Center
Wed 09:09:32 AM 33.8944 -89.9192 North 215 247 4,900  Level Memphis Center
Wed 09:10:32 AM 33.9528 -89.9139 North 215 247 4,900  Level Memphis Center
Wed 09:11:32 AM 34.0111 -89.9111 North 215 247 4,900  Level Memphis Center
Wed 09:12:32 AM 34.0717 -89.9008 North 215 247 4,900  Level Memphis Center
Wed 09:13:32 AM 34.1300 -89.8956 North 215 247 4,900 -300 Level Memphis Center
Wed 09:14:32 AM 34.1906 -89.8875 North 215 247 4,300 -500 Descending Memphis Center
Wed 09:15:32 AM 34.2511 -89.8822 North 215 247 3,900 -150 Descending Memphis Center
Wed 09:16:32 AM 34.3094 -89.8719 North 215 247 4,000 50 Climbing Memphis Center
Wed 09:17:32 AM 34.3658 -89.8664 North 215 247 4,000 -50 Level Memphis Center
Wed 09:18:32 AM 34.4222 -89.8586 North 210 242 3,900 -50 Descending Memphis Center
Wed 09:19:32 AM 34.4783 -89.8533 North 205 236 3,900 50 Level Memphis Center
Wed 09:20:32 AM 34.5347 -89.8453 North 205 236 4,000 -100 Climbing Memphis Center
Wed 09:21:32 AM 34.5869 -89.8400 North 200 230 3,700  Descending Memphis Center
Wed 09:22:32 AM 34.6431 -89.8347 North 200 230 4,000 150 Climbing Memphis Center
Wed 09:23:32 AM 34.7017 -89.8267 North 200 230 4,000  Level Memphis Center
Wed 09:24:32 AM 34.7578 -89.8211 North 200 230 4,000  Level Memphis Center
Wed 09:25:32 AM 34.7911 -89.7603 56° Northeast 200 230 4,000 -800 Level Memphis Center
Wed 09:26:32 AM 34.8575 -89.7294 21° North 194 223 2,400  Descending Memphis Center
Wed 09:27:32 AM 34.9097 -89.7039 22° Northeast 194 223 4,000 800 Climbing Memphis Center
Wed 09:28:32 AM 34.9617 -89.6781 22° Northeast 194 223 4,000  Level Memphis Center
Wed 09:29:32 AM 35.0136 -89.6522 22° Northeast 194 223 4,000 -1,019 Level Memphis Center
Wed 09:31:11 AM 35.0167 -89.7667 272° West 91 105 1,300 -1,333 Descending KMEM
Wed 09:32:05 AM 35.0000 -89.7833 219° Southwest 92 106 600 -778 Descending KMEM

Login

Don't have an account? Register now (free) for customized features, flight alerts, and more!